sensor_id;sensor_type;location;lat;lon;timestamp;pressure;altitude;pressure_sealevel;temperature;humidity
38558;BME280;24333;42.626;23.308;2022-08-30T00:02:19;92464.34;;;17.49;100.00
38558;BME280;24333;42.626;23.308;2022-08-30T00:05:04;92476.91;;;17.54;100.00
38558;BME280;24333;42.626;23.308;2022-08-30T00:07:30;92477.72;;;17.51;100.00
38558;BME280;24333;42.626;23.308;2022-08-30T00:13:48;92474.59;;;17.48;100.00
38558;BME280;24333;42.626;23.308;2022-08-30T00:16:23;92481.31;;;17.47;100.00
38558;BME280;24333;42.626;23.308;2022-08-30T00:18:51;92453.53;;;17.31;100.00
38558;BME280;24333;42.626;23.308;2022-08-30T00:21:27;92460.91;;;17.41;100.00
38558;BME280;24333;42.626;23.308;2022-08-30T00:23:55;92476.91;;;17.54;100.00
38558;BME280;24333;42.626;23.308;2022-08-30T00:26:26;92452.75;;;17.34;100.00
38558;BME280;24333;42.626;23.308;2022-08-30T00:28:51;92440.97;;;17.30;100.00
38558;BME280;24333;42.626;23.308;2022-08-30T00:31:19;92444.88;;;17.32;100.00
38558;BME280;24333;42.626;23.308;2022-08-30T00:33:47;92477.28;;;17.56;100.00
38558;BME280;24333;42.626;23.308;2022-08-30T00:36:19;92461.28;;;17.43;100.00
38558;BME280;24333;42.626;23.308;2022-08-30T00:38:50;92451.09;;;17.40;100.00
38558;BME280;24333;42.626;23.308;2022-08-30T00:41:26;92447.63;;;17.32;100.00
38558;BME280;24333;42.626;23.308;2022-08-30T00:46:44;92473.81;;;17.48;100.00
38558;BME280;24333;42.626;23.308;2022-08-30T00:49:33;92470.31;;;17.44;100.00
38558;BME280;24333;42.626;23.308;2022-08-30T00:52:02;92473.91;;;17.41;100.00
38558;BME280;24333;42.626;23.308;2022-08-30T00:54:30;92455.09;;;17.32;100.00
38558;BME280;24333;42.626;23.308;2022-08-30T00:56:58;92469.97;;;17.42;100.00
38558;BME280;24333;42.626;23.308;2022-08-30T01:00:01;92491.88;;;17.53;100.00
38558;BME280;24333;42.626;23.308;2022-08-30T01:03:02;92491.06;;;17.56;100.00
38558;BME280;24333;42.626;23.308;2022-08-30T01:05:33;92469.97;;;17.42;100.00
38558;BME280;24333;42.626;23.308;2022-08-30T01:07:59;92477.34;;;17.52;100.00
38558;BME280;24333;42.626;23.308;2022-08-30T01:10:25;92460.91;;;17.41;100.00
38558;BME280;24333;42.626;23.308;2022-08-30T01:20:44;92447.16;;;17.41;100.00
38558;BME280;24333;42.626;23.308;2022-08-30T01:23:14;92466.75;;;17.47;100.00
38558;BME280;24333;42.626;23.308;2022-08-30T01:25:44;92453.16;;;17.32;100.00
38558;BME280;24333;42.626;23.308;2022-08-30T01:46:21;92458.22;;;16.96;100.00
38558;BME280;24333;42.626;23.308;2022-08-30T01:49:06;92461.03;;;16.92;100.00
38558;BME280;24333;42.626;23.308;2022-08-30T01:51:34;92444.19;;;16.86;100.00
38558;BME280;24333;42.626;23.308;2022-08-30T01:54:39;92462.22;;;16.91;100.00
38558;BME280;24333;42.626;23.308;2022-08-30T01:57:07;92452.13;;;16.81;100.00
38558;BME280;24333;42.626;23.308;2022-08-30T01:59:34;92461.88;;;16.85;100.00
38558;BME280;24333;42.626;23.308;2022-08-30T02:02:02;92437.34;;;16.64;100.00
38558;BME280;24333;42.626;23.308;2022-08-30T02:04:28;92446.28;;;16.71;100.00
38558;BME280;24333;42.626;23.308;2022-08-30T02:06:54;92451.78;;;16.71;100.00
38558;BME280;24333;42.626;23.308;2022-08-30T02:09:25;92453.81;;;16.67;100.00
38558;BME280;24333;42.626;23.308;2022-08-30T02:11:50;92447.19;;;16.61;100.00
38558;BME280;24333;42.626;23.308;2022-08-30T02:14:16;92450.31;;;16.59;100.00
38558;BME280;24333;42.626;23.308;2022-08-30T02:16:42;92446.00;;;16.62;100.00
38558;BME280;24333;42.626;23.308;2022-08-30T02:19:07;92450.31;;;16.63;100.00
38558;BME280;24333;42.626;23.308;2022-08-30T02:21:33;92432.22;;;16.62;100.00
38558;BME280;24333;42.626;23.308;2022-08-30T02:23:58;92440.09;;;16.64;100.00
38558;BME280;24333;42.626;23.308;2022-08-30T02:26:24;92438.47;;;16.66;100.00
38558;BME280;24333;42.626;23.308;2022-08-30T02:29:10;92440.03;;;16.67;100.00
38558;BME280;24333;42.626;23.308;2022-08-30T02:32:06;92436.09;;;16.68;100.00
38558;BME280;24333;42.626;23.308;2022-08-30T02:34:31;92438.47;;;16.66;100.00
38558;BME280;24333;42.626;23.308;2022-08-30T02:36:57;92443.97;;;16.66;100.00
38558;BME280;24333;42.626;23.308;2022-08-30T02:39:22;92433.78;;;16.67;100.00
38558;BME280;24333;42.626;23.308;2022-08-30T02:41:48;92438.47;;;16.66;100.00
38558;BME280;24333;42.626;23.308;2022-08-30T02:44:19;92428.66;;;16.65;100.00
38558;BME280;24333;42.626;23.308;2022-08-30T02:46:46;92413.41;;;16.57;100.00
38558;BME280;24333;42.626;23.308;2022-08-30T02:49:12;92437.22;;;16.74;100.00
38558;BME280;24333;42.626;23.308;2022-08-30T02:51:39;92437.63;;;16.73;100.00
38558;BME280;24333;42.626;23.308;2022-08-30T02:56:47;92426.66;;;16.69;100.00
38558;BME280;24333;42.626;23.308;2022-08-30T02:59:14;92427.84;;;16.68;100.00
38558;BME280;24333;42.626;23.308;2022-08-30T03:01:42;92429.47;;;16.62;100.00
38558;BME280;24333;42.626;23.308;2022-08-30T03:04:08;92413.06;;;16.51;100.00
38558;BME280;24333;42.626;23.308;2022-08-30T03:06:35;92435.25;;;16.75;100.00
38558;BME280;24333;42.626;23.308;2022-08-30T03:09:01;92420.31;;;16.72;100.00
38558;BME280;24333;42.626;23.308;2022-08-30T03:11:29;92429.78;;;16.71;100.00
38558;BME280;24333;42.626;23.308;2022-08-30T03:14:29;92450.16;;;16.77;100.00
38558;BME280;24333;42.626;23.308;2022-08-30T03:16:55;92443.09;;;16.76;100.00
38558;BME280;24333;42.626;23.308;2022-08-30T03:19:23;92437.66;;;16.69;100.00
38558;BME280;24333;42.626;23.308;2022-08-30T03:21:49;92441.97;;;16.70;100.00
38558;BME280;24333;42.626;23.308;2022-08-30T03:46:42;92416.63;;;16.48;100.00
38558;BME280;24333;42.626;23.308;2022-08-30T03:49:12;92432.63;;;16.60;100.00
38558;BME280;24333;42.626;23.308;2022-08-30T03:51:38;92445.91;;;16.73;100.00
38558;BME280;24333;42.626;23.308;2022-08-30T04:56:32;92484.19;;;18.30;100.00
38558;BME280;24333;42.626;23.308;2022-08-30T04:59:06;92467.94;;;18.08;100.00
38558;BME280;24333;42.626;23.308;2022-08-30T05:33:52;92493.19;;;18.06;100.00
38558;BME280;24333;42.626;23.308;2022-08-30T05:36:23;92494.78;;;18.04;100.00
38558;BME280;24333;42.626;23.308;2022-08-30T05:39:09;92495.53;;;18.08;100.00
38558;BME280;24333;42.626;23.308;2022-08-30T05:59:35;92502.41;;;17.92;100.00
38558;BME280;24333;42.626;23.308;2022-08-30T06:33:06;92505.81;;;18.04;100.00
38558;BME280;24333;42.626;23.308;2022-08-30T06:35:36;92520.97;;;18.19;100.00
38558;BME280;24333;42.626;23.308;2022-08-30T06:38:04;92516.56;;;17.95;100.00
38558;BME280;24333;42.626;23.308;2022-08-30T06:40:31;92518.31;;;17.81;100.00
38558;BME280;24333;42.626;23.308;2022-08-30T06:43:00;92533.28;;;17.80;100.00
38558;BME280;24333;42.626;23.308;2022-08-30T06:45:26;92512.25;;;17.62;100.00
38558;BME280;24333;42.626;23.308;2022-08-30T06:47:52;92528.81;;;17.59;100.00
38558;BME280;24333;42.626;23.308;2022-08-30T06:50:18;92535.66;;;17.47;100.00
38558;BME280;24333;42.626;23.308;2022-08-30T06:52:44;92541.69;;;17.34;100.00
38558;BME280;24333;42.626;23.308;2022-08-30T06:55:12;92529.44;;;17.39;100.00
38558;BME280;24333;42.626;23.308;2022-08-30T06:57:39;92521.13;;;17.43;100.00
38558;BME280;24333;42.626;23.308;2022-08-30T07:00:09;92542.66;;;17.55;100.00
38558;BME280;24333;42.626;23.308;2022-08-30T07:02:36;92537.81;;;17.28;100.00
38558;BME280;24333;42.626;23.308;2022-08-30T07:05:03;92548.78;;;17.32;100.00
38558;BME280;24333;42.626;23.308;2022-08-30T07:07:29;92552.06;;;17.23;100.00
38558;BME280;24333;42.626;23.308;2022-08-30T07:09:55;92548.56;;;17.19;100.00
38558;BME280;24333;42.626;23.308;2022-08-30T07:12:20;92539.38;;;17.33;100.00
38558;BME280;24333;42.626;23.308;2022-08-30T07:14:46;92528.16;;;17.47;100.00
38558;BME280;24333;42.626;23.308;2022-08-30T07:17:12;92549.47;;;17.78;100.00
38558;BME280;24333;42.626;23.308;2022-08-30T07:19:57;92540.72;;;17.83;100.00
38558;BME280;24333;42.626;23.308;2022-08-30T07:22:23;92543.56;;;17.80;100.00
38558;BME280;24333;42.626;23.308;2022-08-30T07:24:49;92543.47;;;17.87;100.00
38558;BME280;24333;42.626;23.308;2022-08-30T07:27:15;92524.19;;;17.83;100.00
38558;BME280;24333;42.626;23.308;2022-08-30T07:29:40;92538.19;;;18.00;100.00
38558;BME280;24333;42.626;23.308;2022-08-30T07:32:06;92544.72;;;18.13;100.00
38558;BME280;24333;42.626;23.308;2022-08-30T07:34:34;92537.13;;;18.21;100.00
38558;BME280;24333;42.626;23.308;2022-08-30T07:37:00;92546.94;;;18.26;100.00
38558;BME280;24333;42.626;23.308;2022-08-30T07:39:27;92550.13;;;18.20;100.00
38558;BME280;24333;42.626;23.308;2022-08-30T07:41:53;92547.84;;;18.15;100.00
38558;BME280;24333;42.626;23.308;2022-08-30T07:44:20;92545.81;;;18.19;100.00
38558;BME280;24333;42.626;23.308;2022-08-30T07:46:46;92556.59;;;18.10;100.00
38558;BME280;24333;42.626;23.308;2022-08-30T07:49:12;92549.47;;;18.13;100.00
38558;BME280;24333;42.626;23.308;2022-08-30T07:51:38;92559.59;;;18.19;100.00
38558;BME280;24333;42.626;23.308;2022-08-30T07:54:04;92539.94;;;18.17;100.00
38558;BME280;24333;42.626;23.308;2022-08-30T07:56:31;92538.28;;;18.24;100.00
38558;BME280;24333;42.626;23.308;2022-08-30T07:59:08;92559.78;;;18.36;100.00
38558;BME280;24333;42.626;23.308;2022-08-30T10:10:51;92581.56;;;24.16;100.00
38558;BME280;24333;42.626;23.308;2022-08-30T10:36:09;92565.50;;;24.43;91.82
38558;BME280;24333;42.626;23.308;2022-08-30T10:38:38;92554.09;;;24.81;91.63
38558;BME280;24333;42.626;23.308;2022-08-30T10:41:35;92561.22;;;25.33;90.95
38558;BME280;24333;42.626;23.308;2022-08-30T10:44:25;92555.28;;;25.72;78.59
38558;BME280;24333;42.626;23.308;2022-08-30T10:47:23;92553.34;;;25.40;79.01
38558;BME280;24333;42.626;23.308;2022-08-30T10:49:59;92556.19;;;25.78;83.69
38558;BME280;24333;42.626;23.308;2022-08-30T10:53:20;92562.41;;;25.73;74.37
38558;BME280;24333;42.626;23.308;2022-08-30T12:42:23;92459.69;;;24.61;70.93
38558;BME280;24333;42.626;23.308;2022-08-30T12:52:41;92460.13;;;24.50;72.11
38558;BME280;24333;42.626;23.308;2022-08-30T13:03:36;92469.63;;;24.72;74.78
38558;BME280;24333;42.626;23.308;2022-08-30T13:06:05;92466.13;;;24.90;75.11
38558;BME280;24333;42.626;23.308;2022-08-30T13:26:37;92452.56;;;25.20;71.41
38558;BME280;24333;42.626;23.308;2022-08-30T13:29:06;92456.41;;;24.94;69.17
38558;BME280;24333;42.626;23.308;2022-08-30T13:31:31;92458.94;;;24.61;70.77
38558;BME280;24333;42.626;23.308;2022-08-30T13:33:58;92466.06;;;24.71;70.01
38558;BME280;24333;42.626;23.308;2022-08-30T13:36:28;92448.53;;;25.02;73.87
38558;BME280;24333;42.626;23.308;2022-08-30T13:38:54;92446.53;;;25.31;72.20
38558;BME280;24333;42.626;23.308;2022-08-30T13:41:20;92438.50;;;25.51;71.00
38558;BME280;24333;42.626;23.308;2022-08-30T13:43:47;92443.16;;;25.54;67.08
38558;BME280;24333;42.626;23.308;2022-08-30T14:49:08;92403.00;;;24.05;93.18
38558;BME280;24333;42.626;23.308;2022-08-30T14:51:34;92401.75;;;24.06;89.68
38558;BME280;24333;42.626;23.308;2022-08-30T14:53:59;92396.19;;;24.06;87.80
38558;BME280;24333;42.626;23.308;2022-08-30T14:56:25;92389.31;;;23.97;81.75
38558;BME280;24333;42.626;23.308;2022-08-30T14:58:52;92402.59;;;23.93;84.60
38558;BME280;24333;42.626;23.308;2022-08-30T15:06:45;92387.22;;;23.79;97.83
38558;BME280;24333;42.626;23.308;2022-08-30T15:09:15;92385.28;;;23.67;99.97
38558;BME280;24333;42.626;23.308;2022-08-30T15:11:43;92380.47;;;23.58;100.00
38558;BME280;24333;42.626;23.308;2022-08-30T15:29:40;92364.31;;;23.08;100.00
38558;BME280;24333;42.626;23.308;2022-08-30T15:32:30;92369.81;;;22.99;100.00
38558;BME280;24333;42.626;23.308;2022-08-30T15:43:51;92392.69;;;22.68;100.00
38558;BME280;24333;42.626;23.308;2022-08-30T17:32:30;92370.81;;;19.82;100.00
38558;BME280;24333;42.626;23.308;2022-08-30T17:34:56;92380.53;;;19.90;100.00
38558;BME280;24333;42.626;23.308;2022-08-30T17:37:50;92402.78;;;20.03;100.00
38558;BME280;24333;42.626;23.308;2022-08-30T17:46:48;92409.53;;;20.02;100.00
38558;BME280;24333;42.626;23.308;2022-08-30T17:52:09;92413.66;;;19.94;100.00
38558;BME280;24333;42.626;23.308;2022-08-30T17:54:47;92398.06;;;19.84;100.00
38558;BME280;24333;42.626;23.308;2022-08-30T17:57:23;92414.72;;;20.00;100.00
38558;BME280;24333;42.626;23.308;2022-08-30T17:59:50;92398.31;;;19.89;100.00
38558;BME280;24333;42.626;23.308;2022-08-30T18:28:31;92415.06;;;19.65;100.00
38558;BME280;24333;42.626;23.308;2022-08-30T18:31:30;92424.91;;;19.67;100.00
38558;BME280;24333;42.626;23.308;2022-08-30T18:33:56;92442.91;;;19.75;100.00
38558;BME280;24333;42.626;23.308;2022-08-30T18:36:28;92448.84;;;19.73;100.00
38558;BME280;24333;42.626;23.308;2022-08-30T19:20:36;92420.03;;;19.34;100.00
38558;BME280;24333;42.626;23.308;2022-08-30T19:23:02;92412.31;;;19.25;100.00
38558;BME280;24333;42.626;23.308;2022-08-30T19:25:31;92422.94;;;19.27;100.00
38558;BME280;24333;42.626;23.308;2022-08-30T19:28:17;92445.91;;;19.44;100.00
38558;BME280;24333;42.626;23.308;2022-08-30T19:31:05;92425.78;;;19.23;100.00
38558;BME280;24333;42.626;23.308;2022-08-30T19:33:33;92441.38;;;19.33;100.00
38558;BME280;24333;42.626;23.308;2022-08-30T20:04:41;92414.38;;;19.21;99.10
38558;BME280;24333;42.626;23.308;2022-08-30T20:41:14;92419.97;;;19.17;100.00
38558;BME280;24333;42.626;23.308;2022-08-30T20:43:59;92413.25;;;19.18;100.00
38558;BME280;24333;42.626;23.308;2022-08-30T20:46:26;92423.75;;;19.27;100.00
38558;BME280;24333;42.626;23.308;2022-08-30T20:48:55;92433.94;;;19.30;100.00
38558;BME280;24333;42.626;23.308;2022-08-30T21:38:05;92395.75;;;18.61;100.00
38558;BME280;24333;42.626;23.308;2022-08-30T21:40:48;92394.59;;;18.58;100.00
38558;BME280;24333;42.626;23.308;2022-08-30T21:43:14;92398.16;;;18.59;100.00
38558;BME280;24333;42.626;23.308;2022-08-30T21:45:40;92394.91;;;18.64;100.00
38558;BME280;24333;42.626;23.308;2022-08-30T21:48:10;92399.72;;;18.60;100.00
38558;BME280;24333;42.626;23.308;2022-08-30T21:50:38;92390.41;;;18.50;100.00
38558;BME280;24333;42.626;23.308;2022-08-30T21:53:04;92379.84;;;18.45;100.00
38558;BME280;24333;42.626;23.308;2022-08-30T22:31:44;92408.97;;;17.67;100.00
38558;BME280;24333;42.626;23.308;2022-08-30T22:34:16;92387.19;;;17.49;100.00
38558;BME280;24333;42.626;23.308;2022-08-30T22:37:08;92409.09;;;17.60;100.00
38558;BME280;24333;42.626;23.308;2022-08-30T22:43:23;92410.72;;;17.57;100.00
38558;BME280;24333;42.626;23.308;2022-08-30T22:45:58;92386.50;;;17.41;100.00
38558;BME280;24333;42.626;23.308;2022-08-30T22:48:24;92381.00;;;17.41;100.00
38558;BME280;24333;42.626;23.308;2022-08-30T22:50:51;92396.19;;;17.53;100.00
38558;BME280;24333;42.626;23.308;2022-08-30T22:53:17;92376.25;;;17.42;100.00
38558;BME280;24333;42.626;23.308;2022-08-30T22:55:43;92401.25;;;17.58;100.00
38558;BME280;24333;42.626;23.308;2022-08-30T22:58:33;92402.91;;;17.52;100.00
38558;BME280;24333;42.626;23.308;2022-08-30T23:01:03;92367.81;;;17.25;100.00
38558;BME280;24333;42.626;23.308;2022-08-30T23:03:30;92367.81;;;17.25;100.00
38558;BME280;24333;42.626;23.308;2022-08-30T23:05:56;92381.13;;;17.30;100.00
38558;BME280;24333;42.626;23.308;2022-08-30T23:36:08;92343.28;;;17.34;100.00
38558;BME280;24333;42.626;23.308;2022-08-30T23:44:02;92371.44;;;17.49;100.00
38558;BME280;24333;42.626;23.308;2022-08-30T23:46:47;92374.59;;;17.48;100.00
38558;BME280;24333;42.626;23.308;2022-08-30T23:49:31;92367.63;;;17.40;100.00
38558;BME280;24333;42.626;23.308;2022-08-30T23:52:15;92363.38;;;17.35;100.00
38558;BME280;24333;42.626;23.308;2022-08-30T23:54:59;92367.31;;;17.34;100.00
